createdAt,value
2023-02-14T00:02:06.785Z,2.47
2023-02-14T00:04:38.518Z,7.40
2023-02-14T00:07:06.741Z,4.80
2023-02-14T00:09:34.973Z,5.73
2023-02-14T00:12:03.805Z,3.13
2023-02-14T00:14:51.188Z,4.37
2023-02-14T00:17:19.474Z,4.50
2023-02-14T00:19:47.716Z,4.50
2023-02-14T00:22:15.973Z,4.23
2023-02-14T00:24:44.209Z,6.00
2023-02-14T00:27:12.523Z,4.43
2023-02-14T00:29:42.168Z,4.23
2023-02-14T00:32:10.448Z,5.20
2023-02-14T00:34:38.757Z,6.73
2023-02-14T00:37:06.936Z,3.53
2023-02-14T00:39:35.464Z,4.73
2023-02-14T00:42:03.668Z,4.83
2023-02-14T00:44:31.835Z,5.00
2023-02-14T00:47:01.409Z,6.73
2023-02-14T00:49:30.020Z,3.93
2023-02-14T00:51:59.108Z,5.30
2023-02-14T00:54:27.928Z,4.27
2023-02-14T00:56:56.158Z,4.87
2023-02-14T00:59:24.686Z,3.20
2023-02-14T01:01:53.060Z,4.33
2023-02-14T01:04:22.856Z,3.43
2023-02-14T01:06:51.101Z,5.53
2023-02-14T01:09:19.492Z,2.83
2023-02-14T01:11:48.841Z,5.93
2023-02-14T01:14:17.145Z,4.53
2023-02-14T01:16:45.506Z,3.87
2023-02-14T01:19:14.329Z,5.40
2023-02-14T01:21:44.067Z,5.63
2023-02-14T01:24:13.617Z,3.77
2023-02-14T01:26:42.310Z,5.27
2023-02-14T01:29:10.664Z,5.50
2023-02-14T01:31:39.602Z,4.80
2023-02-14T01:34:08.057Z,2.80
2023-02-14T01:36:38.606Z,7.17
2023-02-14T01:39:11.733Z,4.50
2023-02-14T01:41:41.573Z,5.07
2023-02-14T01:44:48.722Z,6.80
2023-02-14T01:47:18.196Z,2.63
2023-02-14T01:49:51.074Z,4.60
2023-02-14T01:52:23.901Z,4.43
2023-02-14T01:54:57.701Z,3.70
2023-02-14T01:57:30.430Z,6.47
2023-02-14T02:00:20.936Z,4.37
2023-02-14T02:02:49.225Z,5.67
2023-02-14T02:05:23.728Z,7.13
2023-02-14T02:07:53.004Z,4.93
2023-02-14T02:10:22.926Z,9.77
2023-02-14T02:12:52.920Z,8.80
2023-02-14T02:15:24.986Z,6.37
2023-02-14T02:18:03.572Z,5.53
2023-02-14T02:21:15.929Z,5.53
2023-02-14T02:24:09.945Z,5.70
2023-02-14T02:27:13.615Z,7.77
2023-02-14T02:30:15.314Z,8.57
2023-02-14T02:33:28.245Z,5.23
2023-02-14T02:36:15.463Z,10.73
2023-02-14T02:39:01.882Z,8.53
2023-02-14T02:41:53.605Z,7.67
2023-02-14T02:44:30.990Z,4.70
2023-02-14T02:47:06.383Z,8.03
2023-02-14T02:50:00.922Z,8.13
2023-02-14T02:52:57.258Z,7.70
2023-02-14T02:55:53.031Z,7.77
2023-02-14T02:58:22.722Z,5.37
2023-02-14T03:00:53.394Z,9.27
2023-02-14T03:03:41.883Z,9.70
2023-02-14T03:06:10.173Z,5.87
2023-02-14T03:08:39.862Z,6.17
2023-02-14T03:11:08.347Z,7.97
2023-02-14T03:13:52.453Z,5.43
2023-02-14T03:16:35.677Z,9.17
2023-02-14T03:19:47.232Z,5.03
2023-02-14T03:22:23.176Z,10.57
2023-02-14T03:24:57.851Z,8.83
2023-02-14T03:27:31.840Z,4.50
2023-02-14T03:30:14.955Z,6.13
2023-02-14T03:32:47.770Z,9.97
2023-02-14T03:35:22.618Z,7.20
2023-02-14T03:37:57.044Z,7.80
2023-02-14T03:40:29.700Z,6.10
2023-02-14T03:43:01.982Z,8.30
2023-02-14T03:45:33.673Z,9.13
2023-02-14T03:48:07.037Z,7.50
2023-02-14T03:50:39.135Z,10.50
2023-02-14T03:53:12.253Z,7.10
2023-02-14T03:55:45.586Z,8.73
2023-02-14T03:58:22.825Z,8.93
2023-02-14T04:00:54.173Z,11.03
2023-02-14T04:03:24.987Z,6.00
2023-02-14T04:05:53.455Z,7.33
2023-02-14T04:08:26.183Z,6.03
2023-02-14T04:10:58.093Z,9.83
2023-02-14T04:13:27.134Z,4.80
2023-02-14T04:15:55.775Z,10.60
2023-02-14T04:18:41.870Z,8.27
2023-02-14T04:21:10.325Z,7.30
2023-02-14T04:23:38.676Z,7.90
2023-02-14T04:26:08.401Z,7.70
2023-02-14T04:28:36.916Z,9.00
2023-02-14T04:31:07.313Z,10.03
2023-02-14T04:33:36.203Z,10.13
2023-02-14T04:36:04.738Z,9.40
2023-02-14T04:38:34.039Z,6.57
2023-02-14T04:41:02.555Z,7.80
2023-02-14T04:43:32.368Z,7.20
2023-02-14T04:46:00.602Z,7.13
2023-02-14T04:48:29.084Z,9.70
2023-02-14T04:50:58.014Z,4.50
2023-02-14T04:53:27.220Z,8.03
2023-02-14T04:55:55.599Z,3.93
2023-02-14T04:58:24.042Z,9.33
2023-02-14T05:00:53.983Z,9.20
2023-02-14T05:03:22.478Z,6.00
2023-02-14T05:05:50.671Z,7.37
2023-02-14T05:08:18.975Z,7.87
2023-02-14T05:10:47.680Z,9.60
2023-02-14T05:13:15.890Z,10.50
2023-02-14T05:15:46.220Z,8.60
2023-02-14T05:18:15.928Z,9.80
2023-02-14T05:20:44.314Z,6.67
2023-02-14T05:23:13.866Z,9.57
2023-02-14T05:25:42.560Z,7.07
2023-02-14T05:28:10.980Z,7.83
2023-02-14T05:30:39.405Z,9.83
2023-02-14T05:33:08.195Z,6.00
2023-02-14T05:35:38.075Z,4.73
2023-02-14T05:38:07.203Z,6.50
2023-02-14T05:40:35.617Z,11.37
2023-02-14T05:43:03.869Z,7.53
2023-02-14T05:45:32.264Z,6.93
2023-02-14T05:48:00.548Z,8.47
2023-02-14T05:50:30.555Z,6.20
2023-02-14T05:53:02.082Z,8.97
2023-02-14T05:55:30.409Z,8.40
2023-02-14T05:57:58.739Z,8.53
2023-02-14T06:00:27.744Z,9.17
2023-02-14T06:02:56.031Z,8.63
2023-02-14T06:05:24.455Z,9.27
2023-02-14T06:07:52.810Z,6.27
2023-02-14T06:10:24.058Z,4.83
2023-02-14T06:12:54.486Z,7.47
2023-02-14T06:15:23.124Z,5.87
2023-02-14T06:17:55.583Z,6.33
2023-02-14T06:20:25.453Z,8.10
2023-02-14T06:22:53.877Z,4.67
2023-02-14T06:25:25.131Z,9.60
2023-02-14T06:27:56.589Z,6.67
2023-02-14T06:30:25.649Z,9.60
2023-02-14T06:32:54.128Z,5.43
2023-02-14T06:35:22.565Z,7.10
2023-02-14T06:37:50.813Z,7.67
2023-02-14T06:40:19.798Z,4.50
2023-02-14T06:42:49.438Z,8.97
2023-02-14T06:45:17.776Z,6.03
2023-02-14T06:47:47.073Z,6.17
2023-02-14T06:50:15.509Z,6.80
2023-02-14T06:52:44.738Z,9.40
2023-02-14T06:55:13.981Z,8.10
2023-02-14T06:57:42.429Z,7.33
2023-02-14T07:00:14.975Z,8.90
2023-02-14T07:02:43.797Z,8.70
2023-02-14T07:05:12.144Z,9.67
2023-02-14T07:07:43.193Z,11.70
2023-02-14T07:10:12.035Z,6.30
2023-02-14T07:12:40.546Z,9.17
2023-02-14T07:15:09.687Z,4.57
2023-02-14T07:17:39.717Z,6.40
2023-02-14T07:20:10.507Z,7.47
2023-02-14T07:22:40.655Z,7.93
2023-02-14T07:25:10.126Z,8.03
2023-02-14T07:27:38.358Z,6.10
2023-02-14T07:30:08.235Z,4.00
2023-02-14T07:32:38.136Z,7.40
2023-02-14T07:35:09.169Z,6.70
2023-02-14T07:37:37.720Z,5.33
2023-02-14T07:40:14.373Z,5.20
2023-02-14T07:42:43.590Z,6.33
2023-02-14T07:45:21.862Z,4.33
2023-02-14T07:47:51.745Z,5.40
2023-02-14T07:50:22.531Z,7.00
2023-02-14T07:52:51.628Z,5.27
2023-02-14T07:55:20.569Z,4.20
2023-02-14T07:57:50.144Z,3.47
2023-02-14T08:00:19.608Z,4.43
2023-02-14T08:02:49.189Z,4.97
2023-02-14T08:05:18.788Z,3.60
2023-02-14T08:07:48.592Z,4.20
2023-02-14T08:10:18.172Z,3.90
2023-02-14T08:13:01.599Z,4.77
2023-02-14T08:15:49.244Z,6.93
2023-02-14T08:18:18.847Z,2.83
2023-02-14T08:20:48.916Z,3.57
2023-02-14T08:23:19.630Z,3.80
2023-02-14T08:25:49.018Z,3.50
2023-02-14T08:28:17.340Z,4.13
2023-02-14T08:30:46.034Z,3.03
2023-02-14T08:33:14.424Z,3.77
2023-02-14T08:35:42.802Z,3.63
2023-02-14T08:38:11.079Z,4.47
2023-02-14T08:40:41.760Z,2.50
2023-02-14T08:43:11.053Z,3.23
2023-02-14T08:45:39.820Z,3.27
2023-02-14T08:48:10.102Z,3.80
2023-02-14T08:50:39.639Z,4.10
2023-02-14T08:53:09.874Z,2.90
2023-02-14T08:55:38.872Z,3.70
2023-02-14T08:58:09.253Z,5.60
2023-02-14T09:00:37.700Z,2.60
2023-02-14T09:03:06.157Z,2.63
2023-02-14T09:05:35.516Z,3.13
2023-02-14T09:08:03.817Z,3.73
2023-02-14T09:10:32.458Z,4.00
2023-02-14T09:13:00.726Z,3.90
2023-02-14T09:15:30.620Z,2.60
2023-02-14T09:17:58.936Z,3.27
2023-02-14T09:20:27.526Z,3.67
2023-02-14T09:22:57.269Z,3.13
2023-02-14T09:25:25.563Z,2.47
2023-02-14T09:27:53.835Z,2.87
2023-02-14T09:30:22.254Z,3.53
2023-02-14T09:32:53.166Z,3.03
2023-02-14T09:35:21.518Z,3.30
2023-02-14T09:37:49.909Z,2.97
2023-02-14T09:40:20.929Z,3.20
2023-02-14T09:43:02.110Z,3.00
2023-02-14T09:45:33.641Z,4.40
2023-02-14T09:48:08.108Z,5.63
2023-02-14T09:50:44.033Z,5.80
2023-02-14T09:53:21.595Z,6.03
2023-02-14T09:55:56.873Z,5.17
2023-02-14T09:58:32.621Z,6.23
2023-02-14T10:01:09.793Z,5.30
2023-02-14T10:03:53.039Z,6.13
2023-02-14T10:06:39.498Z,4.20
2023-02-14T10:09:15.848Z,5.10
2023-02-14T10:11:47.567Z,4.40
2023-02-14T10:14:19.465Z,4.60
2023-02-14T10:16:52.024Z,4.10
2023-02-14T10:19:27.144Z,3.80
2023-02-14T10:21:58.029Z,4.03
2023-02-14T10:24:31.317Z,3.90
2023-02-14T10:27:11.118Z,4.60
2023-02-14T10:29:39.410Z,4.67
2023-02-14T10:32:15.925Z,4.37
2023-02-14T10:34:49.624Z,4.60
2023-02-14T10:37:31.845Z,4.23
2023-02-14T10:40:28.882Z,4.47
2023-02-14T10:43:02.243Z,4.77
2023-02-14T10:45:43.576Z,4.17
2023-02-14T10:48:23.408Z,4.07
2023-02-14T10:51:00.749Z,4.27
2023-02-14T10:53:40.296Z,3.27
2023-02-14T10:56:18.695Z,3.90
2023-02-14T10:58:50.105Z,4.13
2023-02-14T11:01:20.195Z,3.50
2023-02-14T11:03:56.476Z,3.00
2023-02-14T11:06:26.388Z,2.70
2023-02-14T11:08:56.335Z,3.67
2023-02-14T11:11:31.625Z,3.10
2023-02-14T11:14:22.769Z,3.10
2023-02-14T11:16:53.033Z,2.60
2023-02-14T11:19:27.483Z,3.03
2023-02-14T11:21:59.398Z,2.93
2023-02-14T11:24:31.000Z,2.90
2023-02-14T11:27:03.148Z,2.73
2023-02-14T11:29:34.245Z,2.87
2023-02-14T11:32:10.020Z,3.00
2023-02-14T11:34:40.602Z,2.60
2023-02-14T11:37:27.046Z,2.43
2023-02-14T11:39:56.866Z,2.30
2023-02-14T11:42:39.076Z,2.73
2023-02-14T11:45:08.932Z,2.70
2023-02-14T11:47:41.567Z,2.10
2023-02-14T11:50:24.878Z,4.00
2023-02-14T11:52:56.958Z,2.50
2023-02-14T11:55:28.811Z,2.90
2023-02-14T11:57:57.983Z,3.23
2023-02-14T12:00:27.957Z,3.00
2023-02-14T12:02:58.117Z,3.10
2023-02-14T12:05:30.550Z,4.67
2023-02-14T12:08:03.022Z,3.63
2023-02-14T12:10:32.358Z,4.07
2023-02-14T12:13:02.870Z,3.33
2023-02-14T12:15:40.907Z,4.23
2023-02-14T12:18:38.315Z,4.23
2023-02-14T12:21:22.113Z,3.60
2023-02-14T12:24:01.798Z,3.83
2023-02-14T12:26:35.591Z,4.00
2023-02-14T12:29:14.411Z,5.40
2023-02-14T12:31:43.532Z,5.17
2023-02-14T12:34:13.304Z,5.67
2023-02-14T12:37:07.444Z,5.53
2023-02-14T12:39:43.762Z,5.17
2023-02-14T12:42:25.377Z,5.43
2023-02-14T12:45:04.173Z,8.93
2023-02-14T12:47:41.914Z,5.80
2023-02-14T12:50:38.940Z,6.10
2023-02-14T12:53:40.421Z,7.33
2023-02-14T12:56:15.489Z,5.70
2023-02-14T12:59:01.822Z,8.67
2023-02-14T13:01:58.556Z,6.10
2023-02-14T13:04:57.297Z,6.40
2023-02-14T13:07:39.710Z,8.60
2023-02-14T13:10:17.427Z,9.00
2023-02-14T13:12:53.919Z,7.73
2023-02-14T13:15:33.437Z,8.87
2023-02-14T13:18:10.053Z,8.30
2023-02-14T13:20:49.954Z,7.27
2023-02-14T13:23:24.078Z,13.67
2023-02-14T13:25:57.728Z,7.43
2023-02-14T13:28:28.916Z,9.60
2023-02-14T13:31:00.151Z,8.83
2023-02-14T13:33:35.209Z,12.03
2023-02-14T13:36:07.945Z,11.20
2023-02-14T13:38:44.945Z,9.57
2023-02-14T13:41:15.645Z,9.80
2023-02-14T13:43:52.895Z,9.87
2023-02-14T13:46:52.445Z,10.47
2023-02-14T13:49:34.770Z,9.33
2023-02-14T13:52:08.287Z,13.80
2023-02-14T13:54:44.105Z,11.47
2023-02-14T13:57:31.681Z,8.57
2023-02-14T14:00:42.861Z,9.83
2023-02-14T14:03:16.771Z,15.23
2023-02-14T14:05:58.808Z,11.03
2023-02-14T14:08:56.788Z,13.73
2023-02-14T14:11:59.070Z,12.47
2023-02-14T14:14:36.513Z,11.70
2023-02-14T14:17:21.128Z,10.97
2023-02-14T14:19:51.108Z,11.83
2023-02-14T14:22:22.093Z,12.43
2023-02-14T14:25:01.796Z,11.33
2023-02-14T14:27:34.622Z,17.53
2023-02-14T14:30:06.316Z,9.60
2023-02-14T14:32:36.779Z,9.43
2023-02-14T14:35:08.687Z,15.20
2023-02-14T14:37:46.624Z,14.87
2023-02-14T14:40:25.104Z,9.80
2023-02-14T14:43:01.984Z,10.57
2023-02-14T14:45:31.972Z,11.13
2023-02-14T14:48:04.471Z,13.27
2023-02-14T14:50:40.022Z,13.20
2023-02-14T14:53:11.267Z,15.17
2023-02-14T14:55:41.697Z,11.77
2023-02-14T14:58:34.591Z,11.50
2023-02-14T15:01:03.954Z,12.47
2023-02-14T15:03:32.923Z,14.60
2023-02-14T15:06:11.533Z,11.53
2023-02-14T15:08:39.842Z,12.17
2023-02-14T15:11:10.845Z,13.60
2023-02-14T15:13:53.937Z,13.33
2023-02-14T15:16:25.152Z,14.87
2023-02-14T15:18:56.914Z,14.20
2023-02-14T15:21:27.036Z,14.80
2023-02-14T15:23:55.489Z,12.77
2023-02-14T15:26:28.733Z,12.40
2023-02-14T15:29:17.993Z,13.17
2023-02-14T15:31:47.270Z,11.97
2023-02-14T15:34:15.917Z,14.13
2023-02-14T15:36:49.168Z,15.70
2023-02-14T15:39:18.365Z,11.43
2023-02-14T15:41:47.367Z,13.67
2023-02-14T15:44:21.374Z,15.30
2023-02-14T15:46:52.830Z,11.83
2023-02-14T15:49:23.937Z,14.23
2023-02-14T15:51:56.401Z,13.10
2023-02-14T15:54:33.434Z,15.60
2023-02-14T15:57:02.625Z,11.10
2023-02-14T15:59:34.175Z,11.60
2023-02-14T16:02:06.312Z,12.83
2023-02-14T16:04:36.982Z,14.47
2023-02-14T16:07:22.614Z,13.43
2023-02-14T16:09:51.870Z,12.97
2023-02-14T16:12:33.154Z,12.57
2023-02-14T16:15:17.605Z,14.20
2023-02-14T16:17:46.187Z,11.23
2023-02-14T16:20:23.584Z,14.17
2023-02-14T16:22:53.384Z,13.23
2023-02-14T16:25:21.840Z,14.07
2023-02-14T16:27:50.052Z,13.07
2023-02-14T16:30:19.978Z,12.13
2023-02-14T16:32:53.782Z,12.83
2023-02-14T16:35:23.123Z,12.30
2023-02-14T16:37:53.863Z,15.30
2023-02-14T16:40:26.797Z,15.30
2023-02-14T16:42:56.517Z,10.37
2023-02-14T16:45:25.773Z,11.10
2023-02-14T16:47:57.616Z,17.67
2023-02-14T16:50:26.868Z,13.27
2023-02-14T16:52:59.207Z,13.23
2023-02-14T16:55:33.123Z,12.50
2023-02-14T16:58:03.830Z,12.17
2023-02-14T17:00:32.111Z,11.83
2023-02-14T17:03:06.360Z,12.53
2023-02-14T17:05:36.864Z,14.07
2023-02-14T17:08:08.875Z,15.43
2023-02-14T17:10:37.468Z,11.00
2023-02-14T17:13:07.157Z,13.93
2023-02-14T17:15:36.117Z,14.90
2023-02-14T17:18:10.183Z,13.43
2023-02-14T17:20:38.829Z,16.47
2023-02-14T17:23:09.093Z,13.67
2023-02-14T17:25:38.806Z,15.73
2023-02-14T17:28:07.049Z,14.83
2023-02-14T17:30:35.363Z,13.80
2023-02-14T17:33:03.658Z,13.37
2023-02-14T17:35:32.308Z,12.47
2023-02-14T17:38:00.603Z,12.80
2023-02-14T17:40:31.417Z,15.13
2023-02-14T17:42:59.765Z,13.60
2023-02-14T17:45:28.278Z,12.70
2023-02-14T17:47:56.579Z,17.37
2023-02-14T17:50:24.846Z,12.33
2023-02-14T17:52:56.508Z,18.10
2023-02-14T17:55:25.204Z,13.63
2023-02-14T17:57:55.250Z,12.67
2023-02-14T18:00:24.421Z,14.00
2023-02-14T18:02:52.695Z,14.50
2023-02-14T18:05:20.910Z,16.07
2023-02-14T18:07:49.289Z,14.90
2023-02-14T18:10:17.573Z,14.77
2023-02-14T18:12:45.754Z,16.57
2023-02-14T18:15:15.357Z,13.37
2023-02-14T18:17:43.782Z,16.00
2023-02-14T18:20:12.729Z,16.63
2023-02-14T18:22:40.910Z,14.53
2023-02-14T18:25:09.536Z,13.03
2023-02-14T18:27:39.422Z,12.70
2023-02-14T18:30:09.339Z,13.73
2023-02-14T18:32:39.319Z,16.23
2023-02-14T18:35:08.956Z,14.20
2023-02-14T18:37:37.410Z,14.07
2023-02-14T18:40:07.269Z,17.47
2023-02-14T18:42:35.854Z,13.27
2023-02-14T18:45:04.050Z,15.73
2023-02-14T18:47:32.457Z,14.20
2023-02-14T18:50:02.103Z,11.87
2023-02-14T18:52:30.699Z,12.13
2023-02-14T18:54:59.501Z,12.80
2023-02-14T18:57:27.782Z,16.20
2023-02-14T18:59:55.989Z,13.33
2023-02-14T19:02:24.237Z,12.03
2023-02-14T19:04:52.574Z,12.00
2023-02-14T19:07:22.213Z,16.03
2023-02-14T19:09:50.429Z,10.77
2023-02-14T19:12:18.623Z,14.27
2023-02-14T19:14:46.865Z,12.07
2023-02-14T19:17:15.195Z,12.57
2023-02-14T19:19:43.633Z,16.03
2023-02-14T19:22:12.343Z,12.57
2023-02-14T19:24:42.211Z,15.43
2023-02-14T19:27:10.521Z,13.50
2023-02-14T19:29:39.049Z,17.57
2023-02-14T19:32:07.536Z,10.47
2023-02-14T19:34:36.442Z,14.00
2023-02-14T19:37:04.716Z,13.43
2023-02-14T19:39:33.081Z,11.73
2023-02-14T19:42:04.154Z,12.03
2023-02-14T19:44:32.730Z,11.10
2023-02-14T19:47:07.644Z,12.97
2023-02-14T19:49:41.284Z,12.43
2023-02-14T19:52:25.726Z,11.03
2023-02-14T19:54:59.434Z,11.73
2023-02-14T19:57:29.137Z,9.20
2023-02-14T19:59:57.367Z,16.47
2023-02-14T20:02:25.647Z,12.63
2023-02-14T20:04:58.973Z,9.67
2023-02-14T20:07:27.376Z,13.00
2023-02-14T20:09:56.468Z,10.13
2023-02-14T20:12:24.973Z,8.67
2023-02-14T20:14:56.629Z,11.20
2023-02-14T20:17:25.649Z,10.17
2023-02-14T20:19:54.042Z,7.03
2023-02-14T20:22:23.257Z,10.27
2023-02-14T20:24:51.506Z,15.83
2023-02-14T20:27:20.085Z,11.67
2023-02-14T20:29:48.503Z,10.70
2023-02-14T20:32:20.182Z,9.87
2023-02-14T20:34:49.084Z,9.23
2023-02-14T20:37:17.441Z,9.77
2023-02-14T20:39:45.722Z,11.53
2023-02-14T20:42:14.020Z,12.43
2023-02-14T20:44:42.797Z,10.27
2023-02-14T20:47:11.541Z,11.17
2023-02-14T20:49:44.803Z,10.47
2023-02-14T20:52:13.833Z,10.10
2023-02-14T20:54:43.069Z,11.07
2023-02-14T20:57:11.298Z,11.73
2023-02-14T20:59:44.742Z,12.77
2023-02-14T21:02:13.337Z,13.23
2023-02-14T21:04:42.985Z,10.13
2023-02-14T21:07:11.583Z,13.33
2023-02-14T21:09:39.878Z,10.97
2023-02-14T21:12:08.864Z,12.23
2023-02-14T21:14:37.200Z,12.67
2023-02-14T21:17:05.869Z,12.03
2023-02-14T21:19:34.398Z,13.50
2023-02-14T21:22:04.488Z,11.60
2023-02-14T21:24:32.768Z,9.03
2023-02-14T21:27:01.803Z,10.40
2023-02-14T21:29:30.083Z,10.07
2023-02-14T21:31:58.453Z,12.50
2023-02-14T21:34:27.956Z,10.97
2023-02-14T21:36:56.406Z,13.93
2023-02-14T21:39:27.915Z,15.50
2023-02-14T21:41:56.581Z,14.33
2023-02-14T21:44:39.727Z,17.43
2023-02-14T21:47:07.913Z,13.97
2023-02-14T21:49:53.890Z,12.83
2023-02-14T21:52:22.393Z,11.47
2023-02-14T21:54:53.938Z,14.53
2023-02-14T21:57:22.206Z,11.97
2023-02-14T21:59:50.459Z,12.57
2023-02-14T22:02:18.767Z,15.97
2023-02-14T22:04:47.218Z,12.40
2023-02-14T22:07:15.435Z,12.63
2023-02-14T22:09:43.640Z,12.13
2023-02-14T22:12:13.584Z,12.53
2023-02-14T22:14:41.828Z,11.03
2023-02-14T22:17:10.157Z,10.37
2023-02-14T22:19:38.479Z,12.57
2023-02-14T22:22:06.804Z,12.43
2023-02-14T22:24:34.999Z,11.43
2023-02-14T22:27:03.266Z,10.63
2023-02-14T22:29:32.877Z,11.13
2023-02-14T22:32:01.157Z,14.93
2023-02-14T22:34:29.615Z,11.83
2023-02-14T22:36:58.069Z,14.70
2023-02-14T22:39:26.302Z,13.30
2023-02-14T22:41:54.616Z,13.27
2023-02-14T22:44:22.900Z,13.97
2023-02-14T22:46:52.580Z,13.47
2023-02-14T22:49:20.889Z,12.30
2023-02-14T22:51:50.317Z,12.60
2023-02-14T22:54:18.668Z,12.10
2023-02-14T22:56:48.792Z,16.57
2023-02-14T22:59:18.832Z,9.10
2023-02-14T23:01:47.678Z,11.43
2023-02-14T23:04:21.710Z,12.93
2023-02-14T23:06:50.510Z,13.67
2023-02-14T23:09:18.986Z,11.73
2023-02-14T23:11:48.700Z,11.83
2023-02-14T23:14:35.543Z,13.63
2023-02-14T23:17:21.753Z,14.23
2023-02-14T23:20:08.901Z,11.63
2023-02-14T23:22:39.152Z,11.10
2023-02-14T23:25:09.296Z,11.40
2023-02-14T23:27:39.852Z,10.70
2023-02-14T23:30:11.414Z,13.27
2023-02-14T23:32:39.940Z,12.20
2023-02-14T23:35:10.094Z,10.60
2023-02-14T23:37:38.449Z,12.57
2023-02-14T23:40:08.697Z,15.63
2023-02-14T23:42:36.963Z,12.97
2023-02-14T23:45:19.364Z,14.73
2023-02-14T23:47:47.584Z,12.47
2023-02-14T23:50:18.835Z,13.67
2023-02-14T23:52:47.109Z,13.93
2023-02-14T23:55:16.481Z,15.83
2023-02-14T23:57:44.708Z,12.87
